sensor_id;sensor_type;location;lat;lon;timestamp;pressure;altitude;pressure_sealevel;temperature;humidity
11678;BME280;5895;41.950;24.372;2023-02-15T00:01:24;87496.44;;;-6.45;66.97
11678;BME280;5895;41.950;24.372;2023-02-15T00:03:52;87505.03;;;-6.48;68.27
11678;BME280;5895;41.950;24.372;2023-02-15T00:06:20;87494.81;;;-6.46;69.29
11678;BME280;5895;41.950;24.372;2023-02-15T00:08:48;87504.38;;;-6.50;68.85
11678;BME280;5895;41.950;24.372;2023-02-15T00:11:16;87506.88;;;-6.50;68.99
11678;BME280;5895;41.950;24.372;2023-02-15T00:14:04;87494.25;;;-6.61;68.52
11678;BME280;5895;41.950;24.372;2023-02-15T00:16:31;87491.41;;;-6.56;71.18
11678;BME280;5895;41.950;24.372;2023-02-15T00:18:58;87495.63;;;-6.57;72.07
11678;BME280;5895;41.950;24.372;2023-02-15T00:21:29;87519.38;;;-6.37;73.87
11678;BME280;5895;41.950;24.372;2023-02-15T00:23:58;87511.00;;;-6.15;76.54
11678;BME280;5895;41.950;24.372;2023-02-15T00:26:26;87510.03;;;-5.92;78.44
11678;BME280;5895;41.950;24.372;2023-02-15T00:28:53;87508.56;;;-5.73;77.49
11678;BME280;5895;41.950;24.372;2023-02-15T00:31:21;87518.44;;;-5.59;76.61
11678;BME280;5895;41.950;24.372;2023-02-15T00:33:48;87517.91;;;-5.42;77.06
11678;BME280;5895;41.950;24.372;2023-02-15T00:36:15;87509.78;;;-5.24;79.13
11678;BME280;5895;41.950;24.372;2023-02-15T00:38:44;87515.47;;;-5.11;77.20
11678;BME280;5895;41.950;24.372;2023-02-15T00:41:11;87508.75;;;-5.01;77.06
11678;BME280;5895;41.950;24.372;2023-02-15T00:43:38;87513.78;;;-4.90;77.24
11678;BME280;5895;41.950;24.372;2023-02-15T00:46:05;87518.09;;;-4.81;76.86
11678;BME280;5895;41.950;24.372;2023-02-15T00:48:32;87513.22;;;-4.72;77.02
11678;BME280;5895;41.950;24.372;2023-02-15T00:51:00;87511.81;;;-4.65;77.42
11678;BME280;5895;41.950;24.372;2023-02-15T00:53:28;87511.03;;;-4.56;77.21
11678;BME280;5895;41.950;24.372;2023-02-15T00:55:57;87510.53;;;-4.50;77.39
11678;BME280;5895;41.950;24.372;2023-02-15T00:58:24;87518.03;;;-4.48;77.49
11678;BME280;5895;41.950;24.372;2023-02-15T01:00:52;87513.25;;;-4.42;76.94
11678;BME280;5895;41.950;24.372;2023-02-15T01:03:20;87510.34;;;-4.37;77.03
11678;BME280;5895;41.950;24.372;2023-02-15T01:05:48;87509.03;;;-4.32;76.53
11678;BME280;5895;41.950;24.372;2023-02-15T01:08:16;87508.78;;;-4.29;76.99
11678;BME280;5895;41.950;24.372;2023-02-15T01:10:43;87506.66;;;-4.23;77.17
11678;BME280;5895;41.950;24.372;2023-02-15T01:13:14;87492.41;;;-4.24;78.63
11678;BME280;5895;41.950;24.372;2023-02-15T01:15:42;87500.53;;;-4.21;77.18
11678;BME280;5895;41.950;24.372;2023-02-15T01:18:09;87495.09;;;-4.16;76.26
11678;BME280;5895;41.950;24.372;2023-02-15T01:20:38;87493.91;;;-4.12;77.38
11678;BME280;5895;41.950;24.372;2023-02-15T01:23:07;87497.09;;;-4.10;76.67
11678;BME280;5895;41.950;24.372;2023-02-15T01:25:35;87490.19;;;-4.08;75.67
11678;BME280;5895;41.950;24.372;2023-02-15T01:28:03;87492.59;;;-4.07;76.43
11678;BME280;5895;41.950;24.372;2023-02-15T01:30:32;87495.94;;;-4.06;77.26
11678;BME280;5895;41.950;24.372;2023-02-15T01:32:59;87491.81;;;-4.07;75.37
11678;BME280;5895;41.950;24.372;2023-02-15T01:35:27;87492.22;;;-4.02;76.30
11678;BME280;5895;41.950;24.372;2023-02-15T01:37:54;87494.75;;;-4.02;76.82
11678;BME280;5895;41.950;24.372;2023-02-15T01:40:22;87487.81;;;-4.00;76.57
11678;BME280;5895;41.950;24.372;2023-02-15T01:42:50;87475.84;;;-3.98;76.00
11678;BME280;5895;41.950;24.372;2023-02-15T01:45:21;87477.44;;;-3.97;77.86
11678;BME280;5895;41.950;24.372;2023-02-15T01:47:53;87497.72;;;-3.97;76.03
11678;BME280;5895;41.950;24.372;2023-02-15T01:50:26;87488.22;;;-3.95;75.63
11678;BME280;5895;41.950;24.372;2023-02-15T01:52:58;87477.44;;;-3.97;77.30
11678;BME280;5895;41.950;24.372;2023-02-15T01:55:33;87481.56;;;-3.96;76.39
11678;BME280;5895;41.950;24.372;2023-02-15T01:58:02;87481.56;;;-3.96;76.14
11678;BME280;5895;41.950;24.372;2023-02-15T02:00:30;87473.97;;;-3.96;76.59
11678;BME280;5895;41.950;24.372;2023-02-15T02:02:58;87480.63;;;-3.95;77.16
11678;BME280;5895;41.950;24.372;2023-02-15T02:05:27;87484.09;;;-3.96;76.86
11678;BME280;5895;41.950;24.372;2023-02-15T02:07:56;87486.63;;;-3.96;77.14
11678;BME280;5895;41.950;24.372;2023-02-15T02:10:26;87486.50;;;-3.94;76.10
11678;BME280;5895;41.950;24.372;2023-02-15T02:12:55;87488.91;;;-3.93;76.50
11678;BME280;5895;41.950;24.372;2023-02-15T02:15:29;87482.22;;;-3.94;77.10
11678;BME280;5895;41.950;24.372;2023-02-15T02:18:12;87494.91;;;-3.94;78.65
11678;BME280;5895;41.950;24.372;2023-02-15T02:23:59;87499.03;;;-3.93;78.22
11678;BME280;5895;41.950;24.372;2023-02-15T02:30:03;87497.31;;;-3.92;79.79
11678;BME280;5895;41.950;24.372;2023-02-15T02:35:47;87480.38;;;-3.92;77.83
11678;BME280;5895;41.950;24.372;2023-02-15T02:38:27;87493.72;;;-3.90;78.60
11678;BME280;5895;41.950;24.372;2023-02-15T02:41:00;87493.59;;;-3.88;77.65
11678;BME280;5895;41.950;24.372;2023-02-15T02:43:37;87498.53;;;-3.87;77.64
11678;BME280;5895;41.950;24.372;2023-02-15T02:46:10;87498.53;;;-3.87;77.20
11678;BME280;5895;41.950;24.372;2023-02-15T02:48:40;87514.56;;;-3.86;77.36
11678;BME280;5895;41.950;24.372;2023-02-15T02:51:09;87515.47;;;-3.87;77.10
11678;BME280;5895;41.950;24.372;2023-02-15T02:53:36;87493.47;;;-3.87;76.41
11678;BME280;5895;41.950;24.372;2023-02-15T02:56:08;87496.66;;;-3.85;77.52
11678;BME280;5895;41.950;24.372;2023-02-15T02:58:39;87513.47;;;-3.84;76.75
11678;BME280;5895;41.950;24.372;2023-02-15T03:01:11;87514.28;;;-3.83;76.81
11678;BME280;5895;41.950;24.372;2023-02-15T03:03:41;87503.34;;;-3.84;76.87
11678;BME280;5895;41.950;24.372;2023-02-15T03:06:14;87495.06;;;-3.86;77.79
11678;BME280;5895;41.950;24.372;2023-02-15T03:08:47;87502.25;;;-3.91;77.49
11678;BME280;5895;41.950;24.372;2023-02-15T03:11:15;87523.63;;;-3.84;76.74
11678;BME280;5895;41.950;24.372;2023-02-15T03:13:43;87519.22;;;-3.82;77.96
11678;BME280;5895;41.950;24.372;2023-02-15T03:16:12;87515.88;;;-3.82;77.14
11678;BME280;5895;41.950;24.372;2023-02-15T03:18:55;87521.63;;;-3.80;77.38
11678;BME280;5895;41.950;24.372;2023-02-15T03:21:30;87518.97;;;-3.79;76.99
11678;BME280;5895;41.950;24.372;2023-02-15T03:24:02;87515.06;;;-3.83;76.06
11678;BME280;5895;41.950;24.372;2023-02-15T03:26:32;87507.38;;;-3.81;76.08
11678;BME280;5895;41.950;24.372;2023-02-15T03:29:02;87523.38;;;-3.81;76.37
11678;BME280;5895;41.950;24.372;2023-02-15T03:31:34;87517.50;;;-3.81;76.24
11678;BME280;5895;41.950;24.372;2023-02-15T03:34:06;87519.22;;;-3.82;76.71
11678;BME280;5895;41.950;24.372;2023-02-15T03:36:41;87522.69;;;-3.83;75.99
11678;BME280;5895;41.950;24.372;2023-02-15T03:39:18;87522.81;;;-3.84;76.24
11678;BME280;5895;41.950;24.372;2023-02-15T03:41:51;87529.63;;;-3.85;77.10
11678;BME280;5895;41.950;24.372;2023-02-15T03:44:27;87525.34;;;-3.84;77.26
11678;BME280;5895;41.950;24.372;2023-02-15T03:47:00;87526.16;;;-3.84;77.58
11678;BME280;5895;41.950;24.372;2023-02-15T03:49:36;87523.63;;;-3.84;77.82
11678;BME280;5895;41.950;24.372;2023-02-15T03:52:07;87530.28;;;-3.83;77.37
11678;BME280;5895;41.950;24.372;2023-02-15T03:54:36;87528.69;;;-3.84;77.87
11678;BME280;5895;41.950;24.372;2023-02-15T03:57:16;87526.81;;;-3.82;78.36
11678;BME280;5895;41.950;24.372;2023-02-15T04:00:04;87526.00;;;-3.82;77.47
11678;BME280;5895;41.950;24.372;2023-02-15T04:02:59;87531.88;;;-3.82;78.16
11678;BME280;5895;41.950;24.372;2023-02-15T04:05:31;87531.88;;;-3.82;77.19
11678;BME280;5895;41.950;24.372;2023-02-15T04:07:59;87540.44;;;-3.83;77.46
11678;BME280;5895;41.950;24.372;2023-02-15T04:10:27;87536.94;;;-3.82;77.91
11678;BME280;5895;41.950;24.372;2023-02-15T04:13:11;87532.81;;;-3.83;77.13
11678;BME280;5895;41.950;24.372;2023-02-15T04:15:38;87525.22;;;-3.83;77.31
11678;BME280;5895;41.950;24.372;2023-02-15T04:18:23;87529.34;;;-3.82;77.48
11678;BME280;5895;41.950;24.372;2023-02-15T04:21:07;87541.22;;;-3.82;77.96
11678;BME280;5895;41.950;24.372;2023-02-15T04:23:53;87532.72;;;-3.81;78.32
11678;BME280;5895;41.950;24.372;2023-02-15T04:26:37;87536.94;;;-3.82;78.53
11678;BME280;5895;41.950;24.372;2023-02-15T04:29:04;87538.03;;;-3.84;78.65
11678;BME280;5895;41.950;24.372;2023-02-15T04:31:31;87531.09;;;-3.82;77.87
11678;BME280;5895;41.950;24.372;2023-02-15T04:33:58;87529.34;;;-3.82;77.64
11678;BME280;5895;41.950;24.372;2023-02-15T04:36:26;87536.44;;;-3.85;78.53
11678;BME280;5895;41.950;24.372;2023-02-15T04:38:54;87535.50;;;-3.84;77.34
11678;BME280;5895;41.950;24.372;2023-02-15T04:41:21;87543.91;;;-3.84;78.60
11678;BME280;5895;41.950;24.372;2023-02-15T04:43:48;87539.19;;;-3.88;77.69
11678;BME280;5895;41.950;24.372;2023-02-15T04:46:15;87550.94;;;-3.87;77.62
11678;BME280;5895;41.950;24.372;2023-02-15T04:48:43;87550.13;;;-3.88;76.98
11678;BME280;5895;41.950;24.372;2023-02-15T04:51:10;87545.06;;;-3.88;77.59
11678;BME280;5895;41.950;24.372;2023-02-15T04:53:38;87547.75;;;-3.89;77.84
11678;BME280;5895;41.950;24.372;2023-02-15T04:56:06;87555.34;;;-3.89;77.48
11678;BME280;5895;41.950;24.372;2023-02-15T04:58:33;87555.63;;;-3.92;77.81
11678;BME280;5895;41.950;24.372;2023-02-15T05:01:00;87554.78;;;-3.93;77.80
11678;BME280;5895;41.950;24.372;2023-02-15T05:03:28;87559.84;;;-3.93;77.05
11678;BME280;5895;41.950;24.372;2023-02-15T05:05:55;87564.94;;;-3.93;77.01
11678;BME280;5895;41.950;24.372;2023-02-15T05:08:22;87560.78;;;-3.94;77.97
11678;BME280;5895;41.950;24.372;2023-02-15T05:10:49;87561.72;;;-3.95;77.64
11678;BME280;5895;41.950;24.372;2023-02-15T05:13:18;87570.50;;;-3.99;78.39
11678;BME280;5895;41.950;24.372;2023-02-15T05:15:47;87565.44;;;-3.99;77.92
11678;BME280;5895;41.950;24.372;2023-02-15T05:18:15;87592.41;;;-3.98;77.71
11678;BME280;5895;41.950;24.372;2023-02-15T05:20:43;87592.41;;;-3.98;77.43
11678;BME280;5895;41.950;24.372;2023-02-15T05:23:10;87594.94;;;-3.98;77.85
11678;BME280;5895;41.950;24.372;2023-02-15T05:25:37;87590.78;;;-3.99;78.47
11678;BME280;5895;41.950;24.372;2023-02-15T05:28:36;87595.03;;;-4.00;79.91
11678;BME280;5895;41.950;24.372;2023-02-15T05:31:05;87599.31;;;-4.00;79.80
11678;BME280;5895;41.950;24.372;2023-02-15T05:33:33;87602.53;;;-3.98;79.14
11678;BME280;5895;41.950;24.372;2023-02-15T05:36:00;87600.81;;;-3.97;79.16
11678;BME280;5895;41.950;24.372;2023-02-15T05:38:28;87608.94;;;-3.94;79.25
11678;BME280;5895;41.950;24.372;2023-02-15T05:40:55;87608.00;;;-3.93;79.04
11678;BME280;5895;41.950;24.372;2023-02-15T05:43:23;87608.72;;;-3.91;78.68
11678;BME280;5895;41.950;24.372;2023-02-15T05:45:52;87610.97;;;-3.88;78.62
11678;BME280;5895;41.950;24.372;2023-02-15T05:48:22;87615.13;;;-3.87;78.58
11678;BME280;5895;41.950;24.372;2023-02-15T05:50:57;87621.81;;;-3.86;78.68
11678;BME280;5895;41.950;24.372;2023-02-15T05:53:25;87619.94;;;-3.84;78.43
11678;BME280;5895;41.950;24.372;2023-02-15T05:55:52;87619.81;;;-3.82;78.66
11678;BME280;5895;41.950;24.372;2023-02-15T05:58:19;87622.25;;;-3.81;78.80
11678;BME280;5895;41.950;24.372;2023-02-15T06:00:46;87621.31;;;-3.80;79.76
11678;BME280;5895;41.950;24.372;2023-02-15T06:03:15;87623.69;;;-3.78;78.95
11678;BME280;5895;41.950;24.372;2023-02-15T06:05:42;87622.66;;;-3.76;78.52
11678;BME280;5895;41.950;24.372;2023-02-15T06:08:09;87624.25;;;-3.75;79.97
11678;BME280;5895;41.950;24.372;2023-02-15T06:10:36;87634.41;;;-3.75;78.92
11678;BME280;5895;41.950;24.372;2023-02-15T06:13:05;87640.13;;;-3.73;79.67
11678;BME280;5895;41.950;24.372;2023-02-15T06:15:33;87640.56;;;-3.67;78.91
11678;BME280;5895;41.950;24.372;2023-02-15T06:18:00;87640.31;;;-3.64;78.97
11678;BME280;5895;41.950;24.372;2023-02-15T06:20:29;87634.03;;;-3.60;79.52
11678;BME280;5895;41.950;24.372;2023-02-15T06:22:56;87637.38;;;-3.60;79.41
11678;BME280;5895;41.950;24.372;2023-02-15T06:25:23;87642.22;;;-3.57;79.63
11678;BME280;5895;41.950;24.372;2023-02-15T06:27:50;87638.50;;;-3.53;78.01
11678;BME280;5895;41.950;24.372;2023-02-15T06:30:17;87651.47;;;-3.46;77.40
11678;BME280;5895;41.950;24.372;2023-02-15T06:32:44;87643.34;;;-3.40;77.84
11678;BME280;5895;41.950;24.372;2023-02-15T06:35:11;87648.97;;;-3.36;78.53
11678;BME280;5895;41.950;24.372;2023-02-15T06:37:40;87656.34;;;-3.24;77.92
11678;BME280;5895;41.950;24.372;2023-02-15T06:40:08;87657.84;;;-3.11;77.74
11678;BME280;5895;41.950;24.372;2023-02-15T06:42:35;87646.00;;;-3.01;76.65
11678;BME280;5895;41.950;24.372;2023-02-15T06:45:03;87638.94;;;-2.88;76.50
11678;BME280;5895;41.950;24.372;2023-02-15T06:47:30;87639.22;;;-2.81;76.93
11678;BME280;5895;41.950;24.372;2023-02-15T06:49:57;87643.91;;;-2.77;76.25
11678;BME280;5895;41.950;24.372;2023-02-15T06:52:24;87638.69;;;-2.66;76.16
11678;BME280;5895;41.950;24.372;2023-02-15T06:54:53;87632.84;;;-2.56;75.95
11678;BME280;5895;41.950;24.372;2023-02-15T06:57:20;87631.88;;;-2.36;74.99
11678;BME280;5895;41.950;24.372;2023-02-15T06:59:47;87638.72;;;-2.27;75.04
11678;BME280;5895;41.950;24.372;2023-02-15T07:02:14;87638.72;;;-2.07;74.83
11678;BME280;5895;41.950;24.372;2023-02-15T07:04:41;87636.38;;;-1.91;73.29
11678;BME280;5895;41.950;24.372;2023-02-15T07:07:09;87638.13;;;-1.72;72.26
11678;BME280;5895;41.950;24.372;2023-02-15T07:09:37;87636.44;;;-1.54;72.19
11678;BME280;5895;41.950;24.372;2023-02-15T07:12:06;87641.50;;;-1.35;71.89
11678;BME280;5895;41.950;24.372;2023-02-15T07:14:50;87634.94;;;-1.10;70.40
11678;BME280;5895;41.950;24.372;2023-02-15T07:17:18;87633.78;;;-0.88;71.01
11678;BME280;5895;41.950;24.372;2023-02-15T07:19:45;87638.09;;;-0.70;69.39
11678;BME280;5895;41.950;24.372;2023-02-15T07:22:12;87649.91;;;-0.51;69.58
11678;BME280;5895;41.950;24.372;2023-02-15T07:24:39;87643.31;;;-0.44;69.18
11678;BME280;5895;41.950;24.372;2023-02-15T07:27:08;87640.03;;;-0.19;68.48
11678;BME280;5895;41.950;24.372;2023-02-15T07:29:35;87639.16;;;0.08;66.98
11678;BME280;5895;41.950;24.372;2023-02-15T07:32:02;87627.25;;;0.35;66.18
11678;BME280;5895;41.950;24.372;2023-02-15T07:34:29;87635.25;;;0.66;64.34
11678;BME280;5895;41.950;24.372;2023-02-15T07:36:57;87629.63;;;0.88;64.21
11678;BME280;5895;41.950;24.372;2023-02-15T07:39:24;87616.97;;;1.13;63.48
11678;BME280;5895;41.950;24.372;2023-02-15T07:41:51;87629.84;;;1.37;62.48
11678;BME280;5895;41.950;24.372;2023-02-15T07:44:19;87632.28;;;1.55;62.50
11678;BME280;5895;41.950;24.372;2023-02-15T07:46:46;87626.75;;;1.84;61.93
11678;BME280;5895;41.950;24.372;2023-02-15T07:49:14;87627.72;;;2.07;61.44
11678;BME280;5895;41.950;24.372;2023-02-15T07:51:41;87628.22;;;2.27;60.71
11678;BME280;5895;41.950;24.372;2023-02-15T07:54:08;87631.56;;;2.52;60.27
11678;BME280;5895;41.950;24.372;2023-02-15T07:56:35;87613.94;;;2.74;59.52
11678;BME280;5895;41.950;24.372;2023-02-15T07:59:02;87623.53;;;2.96;59.16
11678;BME280;5895;41.950;24.372;2023-02-15T08:01:33;87622.69;;;3.12;59.84
11678;BME280;5895;41.950;24.372;2023-02-15T08:04:02;87632.28;;;3.26;59.00
11678;BME280;5895;41.950;24.372;2023-02-15T08:06:32;87628.19;;;3.48;58.78
11678;BME280;5895;41.950;24.372;2023-02-15T08:09:00;87636.88;;;3.70;58.13
11678;BME280;5895;41.950;24.372;2023-02-15T08:11:31;87627.13;;;3.96;57.84
11678;BME280;5895;41.950;24.372;2023-02-15T08:14:07;87632.00;;;4.14;57.01
11678;BME280;5895;41.950;24.372;2023-02-15T08:16:37;87635.41;;;4.38;57.25
11678;BME280;5895;41.950;24.372;2023-02-15T08:19:06;87638.81;;;4.53;57.03
11678;BME280;5895;41.950;24.372;2023-02-15T08:21:34;87636.84;;;4.78;56.75
11678;BME280;5895;41.950;24.372;2023-02-15T08:24:03;87625.97;;;4.91;56.69
11678;BME280;5895;41.950;24.372;2023-02-15T08:26:31;87636.38;;;5.12;55.92
11678;BME280;5895;41.950;24.372;2023-02-15T08:29:00;87631.69;;;5.30;56.13
11678;BME280;5895;41.950;24.372;2023-02-15T08:31:27;87634.66;;;5.57;55.55
11678;BME280;5895;41.950;24.372;2023-02-15T08:33:56;87633.81;;;5.71;55.16
11678;BME280;5895;41.950;24.372;2023-02-15T08:36:25;87631.69;;;5.90;55.16
11678;BME280;5895;41.950;24.372;2023-02-15T08:38:54;87636.91;;;6.11;54.71
11678;BME280;5895;41.950;24.372;2023-02-15T08:41:22;87640.50;;;6.31;54.51
11678;BME280;5895;41.950;24.372;2023-02-15T08:43:52;87633.09;;;6.43;54.35
11678;BME280;5895;41.950;24.372;2023-02-15T08:46:21;87639.19;;;6.57;54.74
11678;BME280;5895;41.950;24.372;2023-02-15T08:48:48;87623.09;;;6.76;53.83
11678;BME280;5895;41.950;24.372;2023-02-15T08:51:18;87626.03;;;6.95;53.25
11678;BME280;5895;41.950;24.372;2023-02-15T08:53:47;87630.66;;;6.78;53.54
11678;BME280;5895;41.950;24.372;2023-02-15T08:56:16;87633.34;;;6.70;53.37
11678;BME280;5895;41.950;24.372;2023-02-15T08:58:44;87631.94;;;6.88;53.88
11678;BME280;5895;41.950;24.372;2023-02-15T09:01:12;87631.34;;;7.14;53.05
11678;BME280;5895;41.950;24.372;2023-02-15T09:03:43;87623.94;;;7.33;53.51
11678;BME280;5895;41.950;24.372;2023-02-15T09:06:11;87626.78;;;7.45;53.22
11678;BME280;5895;41.950;24.372;2023-02-15T09:08:40;87628.88;;;7.62;51.99
11678;BME280;5895;41.950;24.372;2023-02-15T09:11:09;87625.97;;;7.72;53.25
11678;BME280;5895;41.950;24.372;2023-02-15T09:13:37;87627.66;;;7.86;53.26
11678;BME280;5895;41.950;24.372;2023-02-15T09:16:06;87627.94;;;8.05;52.32
11678;BME280;5895;41.950;24.372;2023-02-15T09:18:36;87626.44;;;8.30;52.44
11678;BME280;5895;41.950;24.372;2023-02-15T09:21:11;87625.56;;;8.58;49.58
11678;BME280;5895;41.950;24.372;2023-02-15T09:23:41;87626.19;;;8.80;51.35
11678;BME280;5895;41.950;24.372;2023-02-15T09:26:10;87625.66;;;9.04;51.10
11678;BME280;5895;41.950;24.372;2023-02-15T09:28:38;87618.28;;;9.21;51.35
11678;BME280;5895;41.950;24.372;2023-02-15T09:31:10;87622.66;;;9.40;49.13
11678;BME280;5895;41.950;24.372;2023-02-15T09:33:39;87619.28;;;9.60;50.86
11678;BME280;5895;41.950;24.372;2023-02-15T09:36:14;87623.03;;;9.77;47.41
11678;BME280;5895;41.950;24.372;2023-02-15T09:38:43;87628.19;;;9.90;50.47
11678;BME280;5895;41.950;24.372;2023-02-15T09:41:33;87630.50;;;10.18;47.18
11678;BME280;5895;41.950;24.372;2023-02-15T09:44:12;87627.94;;;10.12;48.10
11678;BME280;5895;41.950;24.372;2023-02-15T09:46:54;87630.97;;;9.95;47.46
11678;BME280;5895;41.950;24.372;2023-02-15T09:49:32;87630.16;;;10.01;48.08
11678;BME280;5895;41.950;24.372;2023-02-15T09:52:25;87626.53;;;10.29;47.63
11678;BME280;5895;41.950;24.372;2023-02-15T09:55:20;87635.34;;;10.01;43.64
11678;BME280;5895;41.950;24.372;2023-02-15T09:57:55;87625.13;;;10.20;49.56
11678;BME280;5895;41.950;24.372;2023-02-15T10:00:31;87617.25;;;10.53;48.08
11678;BME280;5895;41.950;24.372;2023-02-15T10:03:24;87623.66;;;10.89;45.80
11678;BME280;5895;41.950;24.372;2023-02-15T10:06:01;87609.31;;;11.18;47.45
11678;BME280;5895;41.950;24.372;2023-02-15T10:08:57;87614.09;;;11.46;44.49
11678;BME280;5895;41.950;24.372;2023-02-15T10:11:41;87611.78;;;11.62;46.53
11678;BME280;5895;41.950;24.372;2023-02-15T10:14:29;87618.63;;;11.82;45.55
11678;BME280;5895;41.950;24.372;2023-02-15T10:17:11;87609.47;;;11.98;45.92
11678;BME280;5895;41.950;24.372;2023-02-15T10:19:46;87602.53;;;12.10;47.27
11678;BME280;5895;41.950;24.372;2023-02-15T10:22:26;87610.00;;;12.25;44.25
11678;BME280;5895;41.950;24.372;2023-02-15T10:25:14;87604.50;;;12.51;43.37
11678;BME280;5895;41.950;24.372;2023-02-15T10:27:49;87609.47;;;12.71;46.29
11678;BME280;5895;41.950;24.372;2023-02-15T10:30:20;87605.34;;;12.82;45.69
11678;BME280;5895;41.950;24.372;2023-02-15T10:32:59;87601.25;;;13.04;44.53
11678;BME280;5895;41.950;24.372;2023-02-15T10:35:35;87604.84;;;13.21;42.31
11678;BME280;5895;41.950;24.372;2023-02-15T10:38:13;87607.38;;;13.40;46.33
11678;BME280;5895;41.950;24.372;2023-02-15T10:40:53;87595.88;;;13.59;43.87
11678;BME280;5895;41.950;24.372;2023-02-15T10:43:39;87598.81;;;13.74;41.58
11678;BME280;5895;41.950;24.372;2023-02-15T10:46:16;87608.59;;;13.91;44.07
11678;BME280;5895;41.950;24.372;2023-02-15T10:49:07;87594.06;;;13.95;40.62
11678;BME280;5895;41.950;24.372;2023-02-15T10:51:46;87598.38;;;14.01;42.60
11678;BME280;5895;41.950;24.372;2023-02-15T10:54:24;87597.69;;;14.17;43.17
11678;BME280;5895;41.950;24.372;2023-02-15T10:57:02;87591.34;;;14.13;44.34
11678;BME280;5895;41.950;24.372;2023-02-15T10:59:56;87593.84;;;14.32;40.15
11678;BME280;5895;41.950;24.372;2023-02-15T11:02:39;87589.84;;;14.52;41.99
11678;BME280;5895;41.950;24.372;2023-02-15T11:05:22;87591.19;;;14.67;39.65
11678;BME280;5895;41.950;24.372;2023-02-15T11:07:54;87597.78;;;14.69;46.16
11678;BME280;5895;41.950;24.372;2023-02-15T11:10:28;87599.22;;;14.89;43.23
11678;BME280;5895;41.950;24.372;2023-02-15T11:12:58;87592.78;;;15.08;46.36
11678;BME280;5895;41.950;24.372;2023-02-15T11:15:33;87586.78;;;15.24;43.60
11678;BME280;5895;41.950;24.372;2023-02-15T11:18:06;87591.47;;;15.22;44.71
11678;BME280;5895;41.950;24.372;2023-02-15T11:20:41;87586.69;;;15.19;45.54
11678;BME280;5895;41.950;24.372;2023-02-15T11:23:12;87586.44;;;15.32;44.35
11678;BME280;5895;41.950;24.372;2023-02-15T11:25:43;87585.59;;;15.44;46.00
11678;BME280;5895;41.950;24.372;2023-02-15T11:28:18;87591.44;;;15.51;42.42
11678;BME280;5895;41.950;24.372;2023-02-15T11:30:51;87589.69;;;15.40;43.66
11678;BME280;5895;41.950;24.372;2023-02-15T11:33:22;87581.53;;;15.53;44.37
11678;BME280;5895;41.950;24.372;2023-02-15T11:35:55;87580.50;;;15.54;45.72
11678;BME280;5895;41.950;24.372;2023-02-15T11:38:27;87581.63;;;15.58;43.42
11678;BME280;5895;41.950;24.372;2023-02-15T11:40:59;87575.06;;;15.55;45.15
11678;BME280;5895;41.950;24.372;2023-02-15T11:43:34;87569.78;;;15.67;45.38
11678;BME280;5895;41.950;24.372;2023-02-15T11:46:05;87568.59;;;15.75;44.94
11678;BME280;5895;41.950;24.372;2023-02-15T11:48:32;87562.91;;;15.78;46.66
11678;BME280;5895;41.950;24.372;2023-02-15T11:51:00;87561.53;;;15.75;46.24
11678;BME280;5895;41.950;24.372;2023-02-15T11:53:32;87563.91;;;15.77;42.98
11678;BME280;5895;41.950;24.372;2023-02-15T11:56:00;87559.69;;;15.76;46.25
11678;BME280;5895;41.950;24.372;2023-02-15T11:58:33;87567.88;;;15.79;42.01
11678;BME280;5895;41.950;24.372;2023-02-15T12:01:10;87559.06;;;15.85;41.38
11678;BME280;5895;41.950;24.372;2023-02-15T12:03:45;87562.56;;;15.91;42.62
11678;BME280;5895;41.950;24.372;2023-02-15T12:06:18;87567.47;;;15.87;40.32
11678;BME280;5895;41.950;24.372;2023-02-15T12:08:53;87561.81;;;15.62;40.18
11678;BME280;5895;41.950;24.372;2023-02-15T12:11:26;87561.81;;;15.62;42.61
11678;BME280;5895;41.950;24.372;2023-02-15T12:13:58;87567.25;;;15.72;45.49
11678;BME280;5895;41.950;24.372;2023-02-15T12:16:28;87563.28;;;15.86;44.16
11678;BME280;5895;41.950;24.372;2023-02-15T12:18:57;87559.78;;;15.98;45.52
11678;BME280;5895;41.950;24.372;2023-02-15T12:21:27;87557.72;;;16.00;44.98
11678;BME280;5895;41.950;24.372;2023-02-15T12:24:00;87560.91;;;16.02;44.38
11678;BME280;5895;41.950;24.372;2023-02-15T12:26:31;87563.41;;;16.13;44.80
11678;BME280;5895;41.950;24.372;2023-02-15T12:29:00;87566.44;;;16.22;44.75
11678;BME280;5895;41.950;24.372;2023-02-15T12:31:32;87568.88;;;16.29;40.68
11678;BME280;5895;41.950;24.372;2023-02-15T12:34:03;87567.06;;;16.29;45.32
11678;BME280;5895;41.950;24.372;2023-02-15T12:36:42;87568.22;;;16.38;42.12
11678;BME280;5895;41.950;24.372;2023-02-15T12:39:22;87564.09;;;16.43;37.17
11678;BME280;5895;41.950;24.372;2023-02-15T12:42:00;87556.78;;;16.45;38.39
11678;BME280;5895;41.950;24.372;2023-02-15T12:44:30;87563.13;;;16.49;45.50
11678;BME280;5895;41.950;24.372;2023-02-15T12:47:01;87564.75;;;16.55;43.48
11678;BME280;5895;41.950;24.372;2023-02-15T12:49:30;87560.09;;;16.57;45.10
11678;BME280;5895;41.950;24.372;2023-02-15T12:51:58;87566.38;;;16.56;44.99
11678;BME280;5895;41.950;24.372;2023-02-15T12:54:35;87570.50;;;16.52;39.52
11678;BME280;5895;41.950;24.372;2023-02-15T12:57:21;87564.75;;;16.55;36.11
11678;BME280;5895;41.950;24.372;2023-02-15T12:59:52;87564.69;;;16.50;45.05
11678;BME280;5895;41.950;24.372;2023-02-15T13:02:24;87555.75;;;16.46;40.42
11678;BME280;5895;41.950;24.372;2023-02-15T13:04:53;87561.97;;;16.39;45.33
11678;BME280;5895;41.950;24.372;2023-02-15T13:07:21;87564.34;;;16.41;45.42
11678;BME280;5895;41.950;24.372;2023-02-15T13:09:49;87555.69;;;16.40;44.90
11678;BME280;5895;41.950;24.372;2023-02-15T13:12:20;87563.03;;;16.44;44.68
11678;BME280;5895;41.950;24.372;2023-02-15T13:14:48;87565.13;;;16.42;44.87
11678;BME280;5895;41.950;24.372;2023-02-15T13:17:19;87564.09;;;16.43;44.26
11678;BME280;5895;41.950;24.372;2023-02-15T13:19:52;87562.97;;;16.38;41.20
11678;BME280;5895;41.950;24.372;2023-02-15T13:22:23;87556.94;;;16.38;43.54
11678;BME280;5895;41.950;24.372;2023-02-15T13:24:55;87556.94;;;16.38;41.58
11678;BME280;5895;41.950;24.372;2023-02-15T13:27:26;87550.69;;;16.39;43.72
11678;BME280;5895;41.950;24.372;2023-02-15T13:29:58;87550.44;;;16.40;43.09
11678;BME280;5895;41.950;24.372;2023-02-15T13:32:30;87555.13;;;16.38;41.69
11678;BME280;5895;41.950;24.372;2023-02-15T13:35:01;87556.16;;;16.37;41.54